Time;durP1;ratioP1;P1;durP2;ratioP2;P2;SDS_P1;SDS_P2;PMS_P1;PMS_P2;Temp;Humidity;BMP_temperature;BMP_pressure;BME280_temperature;BME280_humidity;BME280_pressure;Samples;Min_cycle;Max_cycle;Signal;HPM_P1;HPM_P2
2022/08/27 00:00:50;;;;;;;6.03;1.98;;;16.30;99.90;;;;;;5116438;28;20062;-70
2022/08/27 00:03:16;;;;;;;6.60;2.33;;;16.20;99.90;;;;;;5116399;28;20524;-70
2022/08/27 00:05:42;;;;;;;7.05;2.13;;;16.20;99.90;;;;;;5098032;28;20040;-70
2022/08/27 00:08:11;;;;;;;6.63;2.00;;;16.20;99.90;;;;;;5115058;28;20061;-71
2022/08/27 00:10:37;;;;;;;5.50;1.80;;;16.10;99.90;;;;;;5115036;28;20043;-70
2022/08/27 00:13:03;;;;;;;8.32;2.10;;;16.10;99.90;;;;;;5114989;28;20086;-70
2022/08/27 00:15:29;;;;;;;6.93;2.17;;;16.10;99.90;;;;;;5149111;27;20091;-70
2022/08/27 00:17:55;;;;;;;7.25;2.75;;;16.00;99.90;;;;;;5115108;28;20146;-71
2022/08/27 00:20:24;;;;;;;6.38;2.03;;;16.00;99.90;;;;;;5091593;28;20093;-70
2022/08/27 00:22:50;;;;;;;6.43;1.92;;;16.00;99.90;;;;;;5114515;28;20040;-71
2022/08/27 00:25:17;;;;;;;7.05;2.30;;;15.90;99.90;;;;;;5114383;28;20040;-70
2022/08/27 00:27:42;;;;;;;7.05;2.08;;;15.80;99.90;;;;;;5114849;28;20055;-71
2022/08/27 00:30:12;;;;;;;8.10;2.58;;;15.80;99.90;;;;;;5149156;27;20039;-71
2022/08/27 00:32:39;;;;;;;5.53;2.00;;;15.70;99.90;;;;;;5097812;28;20044;-70
2022/08/27 00:35:06;;;;;;;7.53;2.30;;;15.70;99.90;;;;;;5114433;28;20050;-70
2022/08/27 00:37:32;;;;;;;7.80;2.30;;;15.70;99.90;;;;;;5114576;28;20492;-70
2022/08/27 00:39:57;;;;;;;7.80;2.40;;;15.70;99.90;;;;;;5115699;27;20044;-70
2022/08/27 00:42:23;;;;;;;6.43;2.17;;;15.70;99.90;;;;;;5115093;28;20093;-71
2022/08/27 00:44:49;;;;;;;7.57;2.58;;;15.70;99.90;;;;;;5148590;27;20050;-71
2022/08/27 00:47:22;;;;;;;7.63;2.22;;;15.70;99.90;;;;;;5115640;28;20059;-71
2022/08/27 00:50:00;;;;;;;6.63;2.08;;;15.70;99.90;;;;;;5115690;28;20040;-70
2022/08/27 00:52:41;;;;;;;6.80;2.22;;;15.70;99.90;;;;;;5114227;28;20046;-70
2022/08/27 00:55:16;;;;;;;7.67;2.40;;;15.80;99.90;;;;;;5114069;28;20053;-71
2022/08/27 00:57:42;;;;;;;7.30;2.50;;;15.80;99.90;;;;;;5115290;28;20039;-71
2022/08/27 01:00:13;;;;;;;4.95;1.95;;;15.70;99.90;;;;;;5114280;28;20044;-71
2022/08/27 01:02:39;;;;;;;5.18;2.05;;;15.80;99.90;;;;;;5115403;28;20042;-71
2022/08/27 01:05:09;;;;;;;4.50;1.90;;;15.80;99.90;;;;;;5113894;28;20031;-71
2022/08/27 01:07:39;;;;;;;6.22;2.10;;;15.80;99.90;;;;;;5113810;28;20043;-71
2022/08/27 01:10:11;;;;;;;7.78;2.20;;;15.80;99.90;;;;;;5113875;28;20039;-71
2022/08/27 01:12:37;;;;;;;7.85;2.00;;;15.80;99.90;;;;;;5115131;28;20039;-70
2022/08/27 01:15:07;;;;;;;8.82;2.30;;;15.80;99.90;;;;;;5115029;28;20132;-71
2022/08/27 01:17:32;;;;;;;8.27;2.45;;;15.80;99.90;;;;;;5114899;28;20092;-71
2022/08/27 01:20:02;;;;;;;5.50;2.22;;;15.80;99.90;;;;;;5113900;28;20122;-70
2022/08/27 01:23:09;;;;;;;5.68;2.15;;;15.80;99.90;;;;;;5113874;28;20481;-71
2022/08/27 01:25:34;;;;;;;4.82;2.10;;;15.80;99.90;;;;;;5102830;28;20463;-71
2022/08/27 01:28:02;;;;;;;4.90;1.95;;;15.70;99.90;;;;;;5114649;28;20082;-70
2022/08/27 01:30:30;;;;;;;7.57;2.47;;;15.60;99.90;;;;;;5114742;28;20051;-71
2022/08/27 01:32:56;;;;;;;4.28;2.00;;;15.60;99.90;;;;;;5113323;28;20040;-71
2022/08/27 01:35:23;;;;;;;6.55;2.20;;;15.50;99.90;;;;;;5114479;28;20040;-71
2022/08/27 01:37:51;;;;;;;6.55;2.08;;;15.50;99.90;;;;;;5114588;28;20035;-70
2022/08/27 01:40:20;;;;;;;6.75;2.00;;;15.40;99.90;;;;;;5096541;28;20120;-70
2022/08/27 01:42:48;;;;;;;5.13;2.30;;;15.40;99.90;;;;;;5113154;28;20049;-70
2022/08/27 01:45:21;;;;;;;6.78;2.38;;;15.40;99.90;;;;;;5113353;28;20511;-71
2022/08/27 01:47:47;;;;;;;6.50;2.30;;;15.30;99.90;;;;;;5113296;28;20050;-71
2022/08/27 01:50:19;;;;;;;7.85;2.33;;;15.30;99.90;;;;;;5096009;28;20039;-71
2022/08/27 01:52:45;;;;;;;5.38;2.20;;;15.30;99.90;;;;;;5113452;28;20499;-71
2022/08/27 01:55:13;;;;;;;5.65;2.22;;;15.20;99.90;;;;;;5130309;27;20123;-71
2022/08/27 01:57:40;;;;;;;4.78;2.08;;;15.20;99.90;;;;;;5095752;28;20509;-70
2022/08/27 02:00:13;;;;;;;5.45;2.45;;;15.20;99.90;;;;;;5112960;28;20039;-70
2022/08/27 02:02:40;;;;;;;6.60;2.40;;;15.10;99.90;;;;;;5112941;28;20043;-70
2022/08/27 02:05:06;;;;;;;5.57;2.00;;;15.10;99.90;;;;;;5114183;28;20039;-70
2022/08/27 02:07:31;;;;;;;5.40;1.98;;;15.10;99.90;;;;;;5114049;28;20039;-71
2022/08/27 02:09:57;;;;;;;5.95;2.00;;;15.10;99.90;;;;;;5114006;28;20044;-71
2022/08/27 02:12:22;;;;;;;4.60;2.05;;;15.00;99.90;;;;;;5113825;28;20042;-70
2022/08/27 02:14:48;;;;;;;5.95;2.10;;;15.00;99.90;;;;;;5146943;27;20056;-70
2022/08/27 02:17:14;;;;;;;5.55;2.03;;;14.90;99.90;;;;;;5146811;27;20384;-71
2022/08/27 02:19:39;;;;;;;6.40;1.98;;;15.00;99.90;;;;;;5130011;27;20047;-71
2022/08/27 02:22:05;;;;;;;6.88;1.95;;;14.90;99.90;;;;;;5113812;28;20038;-70
2022/08/27 02:24:31;;;;;;;7.78;2.80;;;14.90;99.90;;;;;;5146975;27;20039;-70
2022/08/27 02:26:56;;;;;;;5.35;2.20;;;14.90;99.90;;;;;;5113699;28;20483;-71
2022/08/27 02:29:23;;;;;;;5.13;1.90;;;14.80;99.90;;;;;;5146865;27;20043;-71
2022/08/27 02:31:49;;;;;;;5.57;1.80;;;14.80;99.90;;;;;;5112728;28;20043;-71
2022/08/27 02:34:15;;;;;;;5.50;2.00;;;14.70;99.90;;;;;;5146858;27;20483;-71
2022/08/27 02:36:42;;;;;;;5.28;1.92;;;14.70;99.90;;;;;;5113770;28;20050;-70
2022/08/27 02:39:08;;;;;;;4.55;1.95;;;14.70;99.90;;;;;;5113697;28;20418;-70
2022/08/27 02:41:34;;;;;;;4.60;2.00;;;14.70;99.90;;;;;;5112413;28;20040;-70
2022/08/27 02:44:00;;;;;;;4.43;2.22;;;14.70;99.90;;;;;;5108392;28;20042;-71
2022/08/27 02:46:26;;;;;;;5.22;2.00;;;14.70;99.90;;;;;;5113508;28;20039;-71
2022/08/27 02:48:51;;;;;;;6.45;2.35;;;14.70;99.90;;;;;;5145786;27;20092;-71
2022/08/27 02:51:17;;;;;;;5.72;1.85;;;14.70;99.90;;;;;;5113519;28;20035;-70
2022/08/27 02:53:42;;;;;;;6.35;1.83;;;14.70;99.90;;;;;;5129358;28;20071;-70
2022/08/27 02:56:09;;;;;;;5.65;2.13;;;14.60;99.90;;;;;;5113346;28;20048;-71
2022/08/27 02:58:35;;;;;;;5.95;2.33;;;14.60;99.90;;;;;;5113429;28;20039;-70
2022/08/27 03:01:01;;;;;;;6.75;2.10;;;14.60;99.90;;;;;;5112208;28;20526;-70
2022/08/27 03:03:29;;;;;;;4.88;2.10;;;14.60;99.90;;;;;;5113385;28;20044;-70
2022/08/27 03:05:56;;;;;;;7.00;2.20;;;14.60;99.90;;;;;;5116554;28;20423;-71
2022/08/27 03:08:23;;;;;;;6.85;2.28;;;14.70;99.90;;;;;;5099156;28;20051;-71
2022/08/27 03:10:49;;;;;;;5.95;2.05;;;14.70;99.90;;;;;;5099193;28;20055;-71
2022/08/27 03:13:14;;;;;;;6.47;2.08;;;14.70;99.90;;;;;;5116141;28;20047;-70
2022/08/27 03:15:40;;;;;;;5.20;1.90;;;14.70;99.90;;;;;;5117281;28;20050;-70
2022/08/27 03:18:18;;;;;;;6.72;2.25;;;14.70;99.90;;;;;;5117281;28;20119;-70
2022/08/27 03:20:45;;;;;;;4.32;2.00;;;14.70;99.90;;;;;;5117452;28;20044;-70
2022/08/27 03:23:13;;;;;;;5.30;1.83;;;14.80;99.90;;;;;;5150554;27;20388;-70
2022/08/27 03:25:41;;;;;;;5.70;2.10;;;14.80;99.90;;;;;;5115908;28;20054;-71
2022/08/27 03:28:07;;;;;;;4.05;1.98;;;14.80;99.90;;;;;;5116974;28;20115;-71
2022/08/27 03:30:32;;;;;;;5.68;1.85;;;14.80;99.90;;;;;;5150431;27;20212;-71
2022/08/27 03:32:58;;;;;;;6.60;2.10;;;14.80;99.90;;;;;;5115730;28;20032;-71
2022/08/27 03:35:24;;;;;;;5.68;1.60;;;14.80;99.90;;;;;;5116898;28;20074;-71
2022/08/27 03:37:50;;;;;;;3.67;1.70;;;14.80;99.90;;;;;;5116871;27;20043;-71
2022/08/27 03:40:16;;;;;;;3.20;1.70;;;14.80;99.90;;;;;;5115628;28;20041;-71
2022/08/27 03:42:42;;;;;;;5.20;1.73;;;14.80;99.90;;;;;;5115833;28;20400;-71
2022/08/27 03:45:09;;;;;;;2.92;1.60;;;14.80;99.90;;;;;;5116753;28;20035;-71
2022/08/27 03:47:35;;;;;;;3.58;1.70;;;14.80;99.90;;;;;;5116767;28;20441;-70
2022/08/27 03:50:01;;;;;;;5.90;1.92;;;14.80;99.90;;;;;;5115542;28;20036;-71
2022/08/27 03:52:28;;;;;;;3.70;1.95;;;14.70;99.90;;;;;;5116582;28;20031;-70
2022/08/27 03:54:53;;;;;;;5.88;1.92;;;14.70;99.90;;;;;;5116794;28;20031;-71
2022/08/27 03:57:19;;;;;;;5.20;1.88;;;14.70;99.90;;;;;;5116551;28;20048;-71
2022/08/27 03:59:45;;;;;;;5.30;2.25;;;14.60;99.90;;;;;;5116576;28;20576;-71
2022/08/27 04:02:11;;;;;;;7.82;2.17;;;14.60;99.90;;;;;;5149569;27;20406;-71
2022/08/27 04:04:36;;;;;;;5.45;2.15;;;14.60;99.90;;;;;;5116435;28;20062;-70
2022/08/27 04:07:02;;;;;;;5.88;2.28;;;14.50;99.90;;;;;;5149422;27;20500;-71
2022/08/27 04:09:28;;;;;;;5.47;1.90;;;14.50;99.90;;;;;;5097994;28;20051;-70
2022/08/27 04:11:53;;;;;;;8.38;2.00;;;14.60;99.90;;;;;;5116342;28;20040;-70
2022/08/27 04:14:19;;;;;;;6.00;1.70;;;14.60;99.90;;;;;;5149420;27;20043;-70
2022/08/27 04:16:46;;;;;;;5.40;2.03;;;14.60;99.90;;;;;;5115178;27;20036;-70
2022/08/27 04:19:12;;;;;;;4.82;2.00;;;14.60;99.90;;;;;;5114775;28;20039;-71
2022/08/27 04:21:38;;;;;;;6.28;2.30;;;14.60;99.90;;;;;;5114766;28;20069;-70
2022/08/27 04:24:04;;;;;;;4.03;1.70;;;14.70;99.90;;;;;;5116180;28;20057;-71
2022/08/27 04:26:29;;;;;;;5.57;1.90;;;14.70;99.90;;;;;;5116176;28;20515;-70
2022/08/27 04:28:57;;;;;;;4.93;1.88;;;14.70;99.90;;;;;;5097610;28;20404;-70
2022/08/27 04:31:24;;;;;;;6.05;1.88;;;14.70;99.90;;;;;;5114933;28;20454;-70
2022/08/27 04:33:50;;;;;;;6.38;2.20;;;14.70;99.90;;;;;;5115819;28;20047;-71
2022/08/27 04:36:16;;;;;;;6.53;2.15;;;14.80;99.90;;;;;;5148823;27;20044;-70
2022/08/27 04:38:42;;;;;;;5.88;1.98;;;14.80;99.90;;;;;;5114444;28;20039;-70
2022/08/27 04:41:26;;;;;;;5.18;1.90;;;14.80;99.90;;;;;;5115689;28;20032;-70
2022/08/27 04:43:56;;;;;;;4.93;1.88;;;14.80;99.90;;;;;;5115820;28;20063;-71
2022/08/27 04:46:24;;;;;;;5.25;2.05;;;14.80;99.90;;;;;;5114269;28;20092;-70
2022/08/27 04:48:50;;;;;;;4.65;1.88;;;14.80;99.90;;;;;;5115429;28;20115;-71
2022/08/27 04:51:16;;;;;;;7.53;2.00;;;14.80;99.90;;;;;;5115660;28;20040;-70
2022/08/27 04:53:42;;;;;;;6.40;2.38;;;14.80;99.90;;;;;;5114105;28;20040;-70
2022/08/27 04:56:13;;;;;;;3.25;1.70;;;14.80;99.90;;;;;;5148454;27;20510;-70
2022/08/27 04:58:38;;;;;;;7.00;2.08;;;14.80;99.90;;;;;;5114116;28;20165;-70
2022/08/27 05:01:04;;;;;;;5.85;1.95;;;14.80;99.90;;;;;;5148580;27;20499;-70
2022/08/27 05:03:29;;;;;;;6.68;2.08;;;14.70;99.90;;;;;;5148693;27;20038;-70
2022/08/27 05:06:04;;;;;;;8.55;1.90;;;14.70;99.90;;;;;;5096928;28;20039;-70
2022/08/27 05:08:30;;;;;;;4.65;1.80;;;14.60;99.90;;;;;;5114070;28;20055;-71
2022/08/27 05:10:56;;;;;;;5.80;2.22;;;14.60;99.90;;;;;;5130871;27;20031;-70
2022/08/27 05:13:24;;;;;;;4.75;2.00;;;14.60;99.90;;;;;;5148038;27;20135;-70
2022/08/27 05:15:58;;;;;;;5.45;2.17;;;14.60;99.90;;;;;;5114933;28;20051;-70
2022/08/27 05:18:23;;;;;;;4.93;2.20;;;14.60;99.90;;;;;;5114963;27;20100;-71
2022/08/27 05:20:49;;;;;;;5.57;2.10;;;14.60;99.90;;;;;;5147946;27;20438;-70
2022/08/27 05:23:16;;;;;;;6.88;2.20;;;14.60;99.90;;;;;;5147949;27;20062;-70
2022/08/27 05:25:44;;;;;;;6.28;2.08;;;14.50;99.90;;;;;;5113847;28;20387;-70
2022/08/27 05:28:12;;;;;;;6.03;2.13;;;14.50;99.90;;;;;;5113382;28;20043;-70
2022/08/27 05:30:43;;;;;;;6.35;2.42;;;14.50;99.90;;;;;;5113391;28;20054;-70
2022/08/27 05:33:10;;;;;;;6.68;2.67;;;14.50;99.90;;;;;;5113797;28;20455;-70
2022/08/27 05:35:40;;;;;;;6.60;2.20;;;14.50;99.90;;;;;;5113269;28;20040;-70
2022/08/27 05:38:05;;;;;;;8.15;2.63;;;14.50;99.90;;;;;;5114641;27;20023;-70
2022/08/27 05:40:32;;;;;;;6.63;2.20;;;14.50;99.90;;;;;;5096159;28;20126;-70
2022/08/27 05:42:58;;;;;;;6.97;2.38;;;14.50;99.90;;;;;;5114467;28;20407;-70
2022/08/27 05:45:23;;;;;;;6.32;2.47;;;14.50;99.90;;;;;;5096225;28;20054;-70
2022/08/27 05:47:49;;;;;;;6.07;2.30;;;14.60;99.90;;;;;;5147797;27;20036;-70
2022/08/27 05:50:15;;;;;;;6.95;2.20;;;14.70;99.90;;;;;;5113000;28;20124;-70
2022/08/27 05:52:40;;;;;;;4.97;2.10;;;14.80;99.90;;;;;;5147287;27;20035;-70
2022/08/27 05:55:07;;;;;;;4.80;2.35;;;14.90;99.90;;;;;;5114044;28;20153;-70
2022/08/27 05:57:33;;;;;;;7.18;2.08;;;14.90;99.90;;;;;;5114267;28;20040;-70
2022/08/27 06:02:44;;;;;;;6.13;2.22;;;15.10;99.90;;;;;;5112822;28;20051;-70
2022/08/27 06:05:09;;;;;;;6.85;1.98;;;15.20;99.90;;;;;;5112737;28;20087;-71
2022/08/27 06:07:35;;;;;;;3.90;1.80;;;15.30;99.90;;;;;;5114035;28;20120;-70
2022/08/27 06:10:03;;;;;;;4.38;1.90;;;15.50;99.90;;;;;;5147240;27;20480;-70
2022/08/27 06:12:29;;;;;;;6.22;2.00;;;15.60;99.90;;;;;;5112806;28;20036;-71
2022/08/27 06:14:55;;;;;;;8.52;1.98;;;15.70;99.90;;;;;;5112568;28;20073;-71
2022/08/27 06:17:20;;;;;;;6.45;2.50;;;15.80;99.90;;;;;;5112595;28;20074;-70
2022/08/27 06:19:46;;;;;;;5.60;1.92;;;15.90;99.90;;;;;;5113795;28;20522;-71
2022/08/27 06:22:12;;;;;;;9.05;2.30;;;16.10;99.90;;;;;;5113818;28;20040;-70
2022/08/27 06:24:42;;;;;;;4.57;1.60;;;16.20;99.90;;;;;;5146931;27;20050;-70
2022/08/27 06:27:12;;;;;;;6.53;1.70;;;16.30;99.90;;;;;;5112839;28;20399;-71
2022/08/27 06:29:38;;;;;;;6.38;2.35;;;16.40;99.90;;;;;;5112462;28;20039;-70
2022/08/27 06:32:04;;;;;;;4.28;1.63;;;16.50;99.90;;;;;;5112741;28;20055;-71
2022/08/27 06:34:30;;;;;;;6.85;1.70;;;16.60;99.90;;;;;;5112469;28;20047;-70
2022/08/27 06:36:55;;;;;;;6.43;1.80;;;16.70;99.90;;;;;;5146701;27;20148;-70
2022/08/27 06:39:21;;;;;;;5.53;1.60;;;16.70;99.90;;;;;;5111759;28;20502;-71
2022/08/27 06:41:48;;;;;;;6.90;1.70;;;16.80;99.90;;;;;;5146753;27;20062;-71
2022/08/27 06:44:15;;;;;;;5.78;1.58;;;16.90;99.90;;;;;;5112660;28;20047;-71
2022/08/27 06:46:42;;;;;;;7.82;1.65;;;17.10;99.90;;;;;;5113676;28;20442;-71
2022/08/27 06:49:09;;;;;;;11.00;2.72;;;17.10;99.90;;;;;;5113572;28;20111;-71
2022/08/27 06:51:37;;;;;;;7.00;1.50;;;17.20;99.90;;;;;;5113353;28;20040;-71
2022/08/27 06:54:05;;;;;;;5.85;1.50;;;17.30;99.90;;;;;;5113557;28;20043;-71
2022/08/27 06:56:32;;;;;;;9.90;2.17;;;17.30;99.90;;;;;;5112321;28;20084;-71
2022/08/27 06:59:00;;;;;;;6.53;1.80;;;17.30;99.90;;;;;;5095255;28;20045;-71
2022/08/27 07:01:35;;;;;;;6.47;1.48;;;17.40;99.90;;;;;;5113427;28;20388;-71
2022/08/27 07:04:03;;;;;;;7.93;1.50;;;17.40;99.90;;;;;;5112156;28;20044;-71
2022/08/27 07:06:30;;;;;;;6.50;1.60;;;17.40;99.90;;;;;;5113447;28;20063;-71
2022/08/27 07:08:56;;;;;;;6.07;1.67;;;17.40;99.90;;;;;;5113422;28;20035;-71
2022/08/27 07:11:22;;;;;;;8.52;1.80;;;17.50;99.90;;;;;;5113307;28;20043;-71
2022/08/27 07:13:49;;;;;;;5.60;1.80;;;17.40;99.90;;;;;;5112087;28;20126;-71
2022/08/27 07:16:17;;;;;;;5.43;1.40;;;17.40;99.90;;;;;;5112148;28;20122;-71
2022/08/27 07:18:44;;;;;;;4.45;1.60;;;17.50;99.90;;;;;;5111955;28;20614;-73
2022/08/27 07:21:10;;;;;;;6.35;1.50;;;17.50;99.90;;;;;;5112215;28;20372;-73
2022/08/27 07:23:37;;;;;;;5.32;1.52;;;17.50;99.90;;;;;;5111992;28;20039;-73
2022/08/27 07:26:11;;;;;;;5.28;1.45;;;17.50;99.90;;;;;;5111994;28;20047;-71
2022/08/27 07:28:38;;;;;;;6.40;1.58;;;17.60;99.90;;;;;;5111980;28;20099;-71
2022/08/27 07:31:05;;;;;;;10.07;1.60;;;17.60;99.90;;;;;;5112042;28;20047;-71
2022/08/27 07:33:30;;;;;;;6.32;1.70;;;17.70;99.90;;;;;;5112180;28;20044;-71
2022/08/27 07:35:56;;;;;;;5.95;1.48;;;17.80;99.90;;;;;;5146254;27;20122;-71
2022/08/27 07:38:22;;;;;;;6.50;1.60;;;17.90;99.90;;;;;;5146229;27;20032;-71
2022/08/27 07:40:47;;;;;;;4.82;1.50;;;18.00;99.90;;;;;;5113118;28;20429;-71
2022/08/27 07:46:00;;;;;;;5.75;1.50;;;18.10;99.90;;;;;;5113028;28;20130;-71
2022/08/27 07:48:26;;;;;;;8.18;1.35;;;18.20;99.90;;;;;;5111799;28;20035;-71
2022/08/27 07:50:53;;;;;;;5.95;1.50;;;18.30;99.90;;;;;;5112330;28;20079;-71
2022/08/27 07:53:19;;;;;;;7.55;1.63;;;18.30;99.90;;;;;;5116754;27;20039;-71
2022/08/27 07:55:45;;;;;;;5.35;1.25;;;18.40;99.90;;;;;;5116581;28;20096;-71
2022/08/27 07:58:12;;;;;;;6.30;1.70;;;18.40;99.90;;;;;;5115210;28;20078;-71
2022/08/27 08:00:41;;;;;;;6.10;1.48;;;18.50;99.90;;;;;;5116647;28;20081;-71
2022/08/27 08:03:07;;;;;;;5.22;1.55;;;18.60;99.90;;;;;;5115167;28;20031;-71
2022/08/27 08:05:33;;;;;;;5.13;1.60;;;18.60;99.90;;;;;;5115132;28;20495;-71
2022/08/27 08:07:59;;;;;;;6.72;1.60;;;18.70;99.90;;;;;;5115117;28;20403;-71
2022/08/27 08:10:24;;;;;;;7.70;1.50;;;18.60;99.90;;;;;;5098209;28;20047;-71
2022/08/27 08:12:50;;;;;;;7.07;1.60;;;18.70;99.90;;;;;;5149154;27;20043;-71
2022/08/27 08:15:17;;;;;;;8.65;2.20;;;18.80;99.90;;;;;;5116652;28;20043;-71
2022/08/27 08:17:43;;;;;;;8.10;1.52;;;18.80;99.90;;;;;;5115175;28;20032;-72
2022/08/27 08:20:10;;;;;;;8.98;1.60;;;18.90;99.90;;;;;;5116199;28;20035;-71
2022/08/27 08:22:37;;;;;;;9.02;1.40;;;19.00;99.90;;;;;;5115046;28;20077;-71
2022/08/27 08:25:03;;;;;;;11.63;1.60;;;19.00;99.90;;;;;;5115062;28;20461;-71
2022/08/27 08:27:31;;;;;;;6.03;1.50;;;19.10;99.90;;;;;;5115002;28;20065;-71
2022/08/27 08:29:58;;;;;;;6.55;1.80;;;19.10;99.90;;;;;;5114722;28;20085;-71
2022/08/27 08:32:23;;;;;;;6.28;1.30;;;19.30;99.90;;;;;;5115970;28;20043;-71
2022/08/27 08:34:49;;;;;;;6.70;1.60;;;19.50;99.90;;;;;;5114792;28;20487;-70
2022/08/27 08:37:15;;;;;;;7.18;1.13;;;19.70;99.90;;;;;;5148828;27;20040;-71
2022/08/27 08:39:41;;;;;;;8.32;1.30;;;19.80;99.90;;;;;;5114438;28;20092;-70
2022/08/27 08:42:22;;;;;;;8.05;1.85;;;19.80;99.90;;;;;;5115673;28;20050;-71
2022/08/27 08:44:52;;;;;;;3.93;1.10;;;19.90;99.90;;;;;;5115715;28;20036;-70
2022/08/27 08:47:32;;;;;;;6.22;1.10;;;20.00;99.90;;;;;;5097673;28;20040;-71
2022/08/27 08:50:12;;;;;;;8.70;1.55;;;20.10;99.90;;;;;;5114321;28;20035;-71
2022/08/27 08:52:59;;;;;;;8.85;1.40;;;20.10;99.90;;;;;;5114262;28;20134;-70
2022/08/27 08:55:53;;;;;;;6.85;1.33;;;20.20;99.90;;;;;;5114239;28;20057;-70
2022/08/27 08:58:33;;;;;;;7.63;1.27;;;20.20;99.90;;;;;;5112115;28;20043;-70
2022/08/27 09:01:02;;;;;;;6.75;1.30;;;20.10;99.90;;;;;;5115371;28;20033;-70
2022/08/27 09:03:28;;;;;;;7.03;1.30;;;20.10;99.90;;;;;;5114829;28;20545;-70
2022/08/27 09:06:02;;;;;;;6.43;1.63;;;19.90;99.90;;;;;;5113976;28;20043;-70
2022/08/27 09:08:41;;;;;;;7.40;2.08;;;19.90;99.90;;;;;;5132252;27;20047;-70
2022/08/27 09:11:25;;;;;;;10.45;1.52;;;19.90;99.90;;;;;;5115089;28;20040;-70
2022/08/27 09:14:35;;;;;;;6.13;1.20;;;19.80;99.90;;;;;;5114989;28;20134;-70
2022/08/27 09:17:02;;;;;;;6.50;1.50;;;19.80;99.90;;;;;;5114277;28;20044;-70
2022/08/27 09:19:28;;;;;;;12.18;1.95;;;19.80;99.90;;;;;;5114918;28;20032;-70
2022/08/27 09:22:11;;;;;;;6.70;1.30;;;19.80;99.90;;;;;;5148081;27;20039;-70
2022/08/27 09:25:07;;;;;;;5.25;1.40;;;19.80;99.90;;;;;;5148364;27;20065;-70
2022/08/27 09:27:35;;;;;;;5.18;1.52;;;19.90;99.90;;;;;;5113919;28;20043;-70
2022/08/27 09:30:10;;;;;;;6.72;1.58;;;19.90;99.90;;;;;;5096800;28;20070;-70
2022/08/27 09:32:36;;;;;;;7.25;1.50;;;19.90;99.90;;;;;;5114718;28;20067;-70
2022/08/27 09:35:05;;;;;;;7.85;1.70;;;19.90;99.90;;;;;;5114754;28;20078;-70
2022/08/27 09:37:39;;;;;;;6.28;1.25;;;20.00;99.90;;;;;;5114675;28;20062;-70
2022/08/27 09:40:18;;;;;;;7.43;1.45;;;20.00;99.90;;;;;;5113335;28;20039;-70
2022/08/27 09:42:49;;;;;;;7.22;1.25;;;20.10;99.90;;;;;;5096280;28;20475;-70
2022/08/27 09:45:20;;;;;;;8.98;1.60;;;20.00;99.90;;;;;;5113543;28;20028;-70
2022/08/27 09:47:51;;;;;;;7.72;1.73;;;19.90;99.90;;;;;;5114628;28;20035;-70
2022/08/27 09:50:22;;;;;;;5.97;1.25;;;20.00;99.90;;;;;;5114616;28;20040;-71
2022/08/27 09:52:57;;;;;;;7.35;1.45;;;19.90;99.90;;;;;;5114273;28;20051;-71
2022/08/27 09:55:38;;;;;;;5.25;1.27;;;19.90;99.90;;;;;;5112955;28;20484;-70
2022/08/27 09:58:14;;;;;;;4.63;1.30;;;19.90;99.90;;;;;;5114287;28;20479;-70
2022/08/27 10:00:40;;;;;;;7.18;1.40;;;20.00;99.90;;;;;;5114295;28;20040;-70
2022/08/27 10:03:07;;;;;;;6.68;1.50;;;20.00;99.90;;;;;;5114020;28;20040;-70
2022/08/27 10:05:52;;;;;;;7.40;1.48;;;20.10;99.90;;;;;;5112847;28;20047;-70
2022/08/27 10:08:56;;;;;;;8.20;1.20;;;20.10;99.90;;;;;;5112856;28;20039;-70
2022/08/27 10:11:30;;;;;;;8.30;1.52;;;20.30;99.90;;;;;;5068799;28;20373;-70
2022/08/27 10:14:15;;;;;;;4.57;1.58;;;20.20;99.90;;;;;;5113037;28;20081;-70
2022/08/27 10:17:18;;;;;;;8.23;1.50;;;20.20;99.90;;;;;;5095834;28;20397;-70
2022/08/27 10:20:03;;;;;;;9.93;1.50;;;20.10;99.90;;;;;;5112786;28;20486;-71
2022/08/27 10:22:46;;;;;;;7.25;1.50;;;20.10;99.90;;;;;;5114010;28;20110;-71
2022/08/27 10:25:27;;;;;;;7.07;1.30;;;20.10;99.90;;;;;;5112666;28;20044;-71
2022/08/27 10:28:35;;;;;;;5.00;1.33;;;20.00;99.90;;;;;;5112951;28;20040;-71
2022/08/27 10:31:29;;;;;;;7.43;1.60;;;20.00;99.90;;;;;;5095524;28;20044;-71
2022/08/27 10:34:19;;;;;;;6.68;1.38;;;20.00;99.90;;;;;;5113745;28;20040;-71
2022/08/27 10:37:12;;;;;;;7.55;1.60;;;20.00;99.90;;;;;;5112385;28;20093;-71
2022/08/27 10:39:40;;;;;;;;;;;20.00;99.90;;;;;;5113130;28;20078;-71
2022/08/27 10:42:12;;;;;;;8.55;1.80;;;20.10;99.90;;;;;;5112345;28;19920;-71
2022/08/27 10:44:55;;;;;;;7.18;1.15;;;20.10;99.90;;;;;;5113589;28;20046;-71
2022/08/27 10:47:26;;;;;;;3.95;1.08;;;20.10;99.90;;;;;;5113703;28;20484;-70
2022/08/27 10:49:56;;;;;;;7.25;1.40;;;20.20;99.90;;;;;;5095653;28;20109;-71
2022/08/27 10:52:40;;;;;;;5.55;1.17;;;20.30;99.90;;;;;;5112262;28;20090;-71
2022/08/27 10:55:22;;;;;;;6.40;1.38;;;20.30;99.90;;;;;;5113567;28;20078;-71
2022/08/27 10:57:59;;;;;;;5.35;1.30;;;20.20;99.90;;;;;;5113776;28;20139;-70
2022/08/27 11:00:38;;;;;;;9.15;1.67;;;20.20;99.90;;;;;;5113548;28;20042;-71
2022/08/27 11:03:10;;;;;;;5.45;1.10;;;20.20;99.90;;;;;;5112128;28;20035;-71
2022/08/27 11:05:40;;;;;;;5.38;1.10;;;20.20;99.90;;;;;;5113377;28;20055;-70
2022/08/27 11:08:22;;;;;;;8.48;1.67;;;20.20;99.90;;;;;;5146539;27;20069;-71
2022/08/27 11:10:53;;;;;;;6.75;1.35;;;20.10;99.90;;;;;;5112522;28;20069;-71
2022/08/27 11:13:32;;;;;;;7.32;1.52;;;20.00;99.90;;;;;;5113279;28;20515;-71
2022/08/27 11:16:01;;;;;;;7.85;1.40;;;20.10;99.90;;;;;;5095183;28;20036;-71
2022/08/27 11:18:36;;;;;;;8.50;1.58;;;20.20;99.90;;;;;;5112049;28;20053;-71
2022/08/27 11:21:15;;;;;;;5.22;1.15;;;20.20;99.90;;;;;;5112143;28;20093;-71
2022/08/27 11:24:01;;;;;;;9.27;1.55;;;20.20;99.90;;;;;;5111980;28;20043;-71
2022/08/27 11:26:31;;;;;;;6.03;1.42;;;20.20;99.90;;;;;;5098314;28;20130;-71
2022/08/27 11:29:00;;;;;;;4.20;1.23;;;20.20;99.90;;;;;;5115921;28;20089;-71
2022/08/27 11:31:52;;;;;;;7.32;1.30;;;20.20;99.90;;;;;;5115949;28;20081;-71
2022/08/27 11:34:30;;;;;;;5.18;1.10;;;20.20;99.90;;;;;;5115780;28;20072;-71
2022/08/27 11:37:02;;;;;;;7.97;1.60;;;20.20;99.90;;;;;;5115654;28;20118;-71
2022/08/27 11:39:36;;;;;;;5.68;1.30;;;20.10;99.90;;;;;;5115763;28;20035;-71
2022/08/27 11:42:06;;;;;;;10.88;1.27;;;20.20;99.90;;;;;;5115712;28;20051;-71
2022/08/27 11:44:38;;;;;;;8.55;1.75;;;20.20;99.90;;;;;;5115514;28;20119;-71
2022/08/27 11:47:33;;;;;;;6.18;1.17;;;20.20;99.90;;;;;;5115752;28;20500;-71
2022/08/27 11:50:03;;;;;;;5.97;1.42;;;20.30;99.90;;;;;;5103569;28;20094;-71
2022/08/27 11:52:37;;;;;;;8.30;1.20;;;20.50;99.90;;;;;;5115501;28;20071;-71
2022/08/27 11:55:21;;;;;;;5.90;1.13;;;20.70;99.90;;;;;;5115451;28;20552;-71
2022/08/27 11:57:49;;;;;;;4.43;1.02;;;20.80;99.90;;;;;;5116537;28;20388;-71
2022/08/27 12:00:28;;;;;;;6.75;1.00;;;20.90;99.90;;;;;;5116579;28;20085;-71
2022/08/27 12:03:08;;;;;;;6.65;1.10;;;20.90;99.90;;;;;;5115215;28;20596;-70
2022/08/27 12:05:39;;;;;;;6.65;1.20;;;20.90;99.90;;;;;;5098472;28;20066;-72
2022/08/27 12:08:26;;;;;;;9.05;1.23;;;20.80;99.90;;;;;;5115104;28;20104;-71
2022/08/27 12:11:20;;;;;;;5.85;1.15;;;20.80;99.90;;;;;;5116345;28;20514;-71
2022/08/27 12:14:11;;;;;;;4.90;1.23;;;20.80;99.90;;;;;;5116138;28;20059;-71
2022/08/27 12:16:56;;;;;;;6.07;1.38;;;20.80;99.90;;;;;;5116201;28;20124;-71
2022/08/27 12:19:49;;;;;;;6.82;1.48;;;20.80;99.90;;;;;;5116354;28;20065;-71
2022/08/27 12:25:30;;;;;;;9.27;1.30;;;21.00;99.90;;;;;;5114784;28;20071;-71
2022/08/27 12:28:01;;;;;;;5.03;1.30;;;21.00;99.90;;;;;;5115023;28;20387;-70
2022/08/27 12:30:47;;;;;;;6.82;1.10;;;21.00;99.90;;;;;;5115067;28;20051;-71
2022/08/27 12:33:38;;;;;;;6.82;1.50;;;21.00;99.90;;;;;;5097763;28;20069;-71
2022/08/27 12:36:09;;;;;;;7.88;1.27;;;20.90;99.90;;;;;;5114318;28;20046;-71
2022/08/27 12:38:35;;;;;;;5.63;1.03;;;20.80;99.90;;;;;;5097433;28;20032;-71
2022/08/27 12:41:07;;;;;;;5.95;0.90;;;20.70;99.90;;;;;;5148896;27;20549;-71
2022/08/27 12:43:37;;;;;;;7.60;1.45;;;20.70;99.90;;;;;;5115566;28;20121;-71
2022/08/27 12:46:14;;;;;;;6.63;1.08;;;20.60;99.90;;;;;;5114454;28;20130;-71
2022/08/27 12:48:43;;;;;;;7.68;1.17;;;20.70;99.90;;;;;;5114350;28;20047;-71
2022/08/27 12:51:24;;;;;;;5.72;1.10;;;20.80;99.90;;;;;;5114544;28;20547;-71
2022/08/27 12:54:27;;;;;;;5.57;1.17;;;21.00;99.90;;;;;;5114161;28;20114;-71
2022/08/27 12:57:26;;;;;;;10.48;2.22;;;21.10;99.90;;;;;;5114051;28;20297;-71
2022/08/27 13:00:17;;;;;;;5.03;1.08;;;21.00;99.90;;;;;;5114298;28;20040;-71
2022/08/27 13:02:46;;;;;;;6.38;1.35;;;21.00;99.90;;;;;;5114421;28;20070;-72
2022/08/27 13:05:12;;;;;;;7.25;1.40;;;20.90;99.90;;;;;;5096920;28;20043;-72
2022/08/27 13:07:43;;;;;;;6.45;1.25;;;20.90;99.90;;;;;;5115305;28;20044;-71
2022/08/27 13:10:14;;;;;;;6.05;1.02;;;21.00;99.90;;;;;;5114033;28;20117;-72
2022/08/27 13:12:41;;;;;;;4.68;1.30;;;21.10;99.90;;;;;;5115012;28;20085;-71
2022/08/27 13:15:10;;;;;;;9.35;1.58;;;21.20;99.90;;;;;;5096873;28;20047;-71